sensor_id;sensor_type;location;lat;lon;timestamp;P1;durP1;ratioP1;P2;durP2;ratioP2
25905;SDS011;13713;52.552;13.204;2023-05-09T00:01:20;14.63;;;11.38;;
25905;SDS011;13713;52.552;13.204;2023-05-09T00:03:46;14.30;;;11.77;;
25905;SDS011;13713;52.552;13.204;2023-05-09T00:06:12;16.05;;;12.05;;
25905;SDS011;13713;52.552;13.204;2023-05-09T00:08:39;18.13;;;12.55;;
25905;SDS011;13713;52.552;13.204;2023-05-09T00:11:05;15.65;;;11.57;;
25905;SDS011;13713;52.552;13.204;2023-05-09T00:13:31;16.50;;;11.43;;
25905;SDS011;13713;52.552;13.204;2023-05-09T00:15:58;15.73;;;12.25;;
25905;SDS011;13713;52.552;13.204;2023-05-09T00:18:25;17.63;;;12.18;;
25905;SDS011;13713;52.552;13.204;2023-05-09T00:20:52;15.68;;;12.32;;
25905;SDS011;13713;52.552;13.204;2023-05-09T00:23:17;17.98;;;12.05;;
25905;SDS011;13713;52.552;13.204;2023-05-09T00:25:43;15.55;;;12.15;;
25905;SDS011;13713;52.552;13.204;2023-05-09T00:28:09;17.75;;;12.77;;
25905;SDS011;13713;52.552;13.204;2023-05-09T00:30:35;18.40;;;12.88;;
25905;SDS011;13713;52.552;13.204;2023-05-09T00:33:01;17.85;;;12.07;;
25905;SDS011;13713;52.552;13.204;2023-05-09T00:35:26;15.55;;;12.20;;
25905;SDS011;13713;52.552;13.204;2023-05-09T00:37:52;19.60;;;13.50;;
25905;SDS011;13713;52.552;13.204;2023-05-09T00:40:18;17.33;;;12.23;;
25905;SDS011;13713;52.552;13.204;2023-05-09T00:42:44;17.10;;;12.82;;
25905;SDS011;13713;52.552;13.204;2023-05-09T00:45:10;15.80;;;12.57;;
25905;SDS011;13713;52.552;13.204;2023-05-09T00:47:35;15.57;;;12.00;;
25905;SDS011;13713;52.552;13.204;2023-05-09T00:50:03;14.98;;;11.23;;
25905;SDS011;13713;52.552;13.204;2023-05-09T00:52:29;16.52;;;12.02;;
25905;SDS011;13713;52.552;13.204;2023-05-09T00:54:57;16.95;;;11.73;;
25905;SDS011;13713;52.552;13.204;2023-05-09T00:57:22;17.08;;;11.88;;
25905;SDS011;13713;52.552;13.204;2023-05-09T00:59:48;16.90;;;12.35;;
25905;SDS011;13713;52.552;13.204;2023-05-09T01:02:15;15.52;;;11.73;;
25905;SDS011;13713;52.552;13.204;2023-05-09T01:04:43;17.23;;;11.80;;
25905;SDS011;13713;52.552;13.204;2023-05-09T01:15:57;14.98;;;11.23;;
25905;SDS011;13713;52.552;13.204;2023-05-09T01:18:45;16.80;;;12.80;;
25905;SDS011;13713;52.552;13.204;2023-05-09T01:21:27;18.67;;;11.93;;
25905;SDS011;13713;52.552;13.204;2023-05-09T01:24:05;15.25;;;11.80;;
25905;SDS011;13713;52.552;13.204;2023-05-09T01:26:58;16.52;;;12.23;;
25905;SDS011;13713;52.552;13.204;2023-05-09T01:29:46;14.85;;;11.50;;
25905;SDS011;13713;52.552;13.204;2023-05-09T01:32:20;17.35;;;12.20;;
25905;SDS011;13713;52.552;13.204;2023-05-09T01:34:51;16.08;;;12.50;;
25905;SDS011;13713;52.552;13.204;2023-05-09T01:37:18;14.70;;;11.77;;
25905;SDS011;13713;52.552;13.204;2023-05-09T01:39:48;15.75;;;11.85;;
25905;SDS011;13713;52.552;13.204;2023-05-09T01:42:17;15.30;;;11.32;;
25905;SDS011;13713;52.552;13.204;2023-05-09T01:44:45;16.67;;;11.95;;
25905;SDS011;13713;52.552;13.204;2023-05-09T01:47:11;15.20;;;11.25;;
25905;SDS011;13713;52.552;13.204;2023-05-09T01:49:40;14.98;;;11.90;;
25905;SDS011;13713;52.552;13.204;2023-05-09T01:52:09;15.93;;;11.85;;
25905;SDS011;13713;52.552;13.204;2023-05-09T01:54:37;16.25;;;11.65;;
25905;SDS011;13713;52.552;13.204;2023-05-09T01:57:05;15.95;;;11.57;;
25905;SDS011;13713;52.552;13.204;2023-05-09T01:59:32;16.88;;;12.43;;
25905;SDS011;13713;52.552;13.204;2023-05-09T02:01:59;15.73;;;11.93;;
25905;SDS011;13713;52.552;13.204;2023-05-09T02:04:26;15.80;;;12.05;;
25905;SDS011;13713;52.552;13.204;2023-05-09T02:06:55;15.07;;;12.02;;
25905;SDS011;13713;52.552;13.204;2023-05-09T02:09:23;15.77;;;11.55;;
25905;SDS011;13713;52.552;13.204;2023-05-09T02:11:48;16.02;;;11.65;;
25905;SDS011;13713;52.552;13.204;2023-05-09T02:14:14;15.07;;;11.73;;
25905;SDS011;13713;52.552;13.204;2023-05-09T02:16:40;16.05;;;12.02;;
25905;SDS011;13713;52.552;13.204;2023-05-09T02:19:06;17.73;;;12.52;;
25905;SDS011;13713;52.552;13.204;2023-05-09T02:21:32;15.75;;;12.15;;
25905;SDS011;13713;52.552;13.204;2023-05-09T02:23:58;15.52;;;12.23;;
25905;SDS011;13713;52.552;13.204;2023-05-09T02:26:24;16.40;;;12.20;;
25905;SDS011;13713;52.552;13.204;2023-05-09T02:28:51;14.95;;;11.82;;
25905;SDS011;13713;52.552;13.204;2023-05-09T02:31:19;14.45;;;11.40;;
25905;SDS011;13713;52.552;13.204;2023-05-09T02:33:46;14.90;;;11.70;;
25905;SDS011;13713;52.552;13.204;2023-05-09T02:36:13;14.20;;;11.15;;
25905;SDS011;13713;52.552;13.204;2023-05-09T02:38:40;16.83;;;12.13;;
25905;SDS011;13713;52.552;13.204;2023-05-09T02:41:11;15.00;;;11.70;;
25905;SDS011;13713;52.552;13.204;2023-05-09T02:43:37;14.48;;;10.93;;
25905;SDS011;13713;52.552;13.204;2023-05-09T02:46:03;15.90;;;12.07;;
25905;SDS011;13713;52.552;13.204;2023-05-09T02:48:29;14.68;;;11.10;;
25905;SDS011;13713;52.552;13.204;2023-05-09T02:50:54;15.85;;;11.75;;
25905;SDS011;13713;52.552;13.204;2023-05-09T02:53:21;14.45;;;11.52;;
25905;SDS011;13713;52.552;13.204;2023-05-09T02:55:47;15.10;;;11.55;;
25905;SDS011;13713;52.552;13.204;2023-05-09T02:58:13;14.50;;;11.85;;
25905;SDS011;13713;52.552;13.204;2023-05-09T03:00:39;15.02;;;11.73;;
25905;SDS011;13713;52.552;13.204;2023-05-09T03:03:05;16.33;;;11.15;;
25905;SDS011;13713;52.552;13.204;2023-05-09T03:05:30;13.88;;;11.10;;
25905;SDS011;13713;52.552;13.204;2023-05-09T03:07:56;15.18;;;11.50;;
25905;SDS011;13713;52.552;13.204;2023-05-09T03:10:22;14.27;;;11.40;;
25905;SDS011;13713;52.552;13.204;2023-05-09T03:12:47;14.38;;;10.50;;
25905;SDS011;13713;52.552;13.204;2023-05-09T03:15:13;14.80;;;11.00;;
25905;SDS011;13713;52.552;13.204;2023-05-09T03:17:40;15.48;;;11.30;;
25905;SDS011;13713;52.552;13.204;2023-05-09T03:20:06;13.80;;;10.90;;
25905;SDS011;13713;52.552;13.204;2023-05-09T03:22:32;14.02;;;11.38;;
25905;SDS011;13713;52.552;13.204;2023-05-09T03:25:01;13.70;;;10.50;;
25905;SDS011;13713;52.552;13.204;2023-05-09T03:27:27;15.85;;;10.80;;
25905;SDS011;13713;52.552;13.204;2023-05-09T03:29:53;14.60;;;11.13;;
25905;SDS011;13713;52.552;13.204;2023-05-09T03:32:19;16.23;;;11.30;;
25905;SDS011;13713;52.552;13.204;2023-05-09T03:34:45;14.73;;;10.48;;
25905;SDS011;13713;52.552;13.204;2023-05-09T03:37:11;13.93;;;11.13;;
25905;SDS011;13713;52.552;13.204;2023-05-09T03:39:38;14.05;;;11.02;;
25905;SDS011;13713;52.552;13.204;2023-05-09T03:42:04;13.35;;;10.65;;
25905;SDS011;13713;52.552;13.204;2023-05-09T03:44:30;13.90;;;10.77;;
25905;SDS011;13713;52.552;13.204;2023-05-09T03:46:58;14.93;;;11.30;;
25905;SDS011;13713;52.552;13.204;2023-05-09T03:49:24;14.95;;;11.57;;
25905;SDS011;13713;52.552;13.204;2023-05-09T03:51:52;12.80;;;10.48;;
25905;SDS011;13713;52.552;13.204;2023-05-09T03:54:18;13.95;;;10.68;;
25905;SDS011;13713;52.552;13.204;2023-05-09T03:56:45;14.90;;;11.02;;
25905;SDS011;13713;52.552;13.204;2023-05-09T03:59:10;15.63;;;10.70;;
25905;SDS011;13713;52.552;13.204;2023-05-09T04:01:37;13.73;;;10.38;;
25905;SDS011;13713;52.552;13.204;2023-05-09T04:04:04;14.02;;;10.50;;
25905;SDS011;13713;52.552;13.204;2023-05-09T04:06:32;15.02;;;10.27;;
25905;SDS011;13713;52.552;13.204;2023-05-09T04:08:59;12.32;;;9.82;;
25905;SDS011;13713;52.552;13.204;2023-05-09T04:11:25;13.65;;;10.10;;
25905;SDS011;13713;52.552;13.204;2023-05-09T04:13:51;14.98;;;10.40;;
25905;SDS011;13713;52.552;13.204;2023-05-09T04:16:24;14.80;;;10.95;;
25905;SDS011;13713;52.552;13.204;2023-05-09T04:18:50;15.02;;;10.63;;
25905;SDS011;13713;52.552;13.204;2023-05-09T04:21:16;14.82;;;10.13;;
25905;SDS011;13713;52.552;13.204;2023-05-09T04:23:45;14.73;;;11.20;;
25905;SDS011;13713;52.552;13.204;2023-05-09T04:26:12;14.18;;;10.27;;
25905;SDS011;13713;52.552;13.204;2023-05-09T04:28:40;15.15;;;11.77;;
25905;SDS011;13713;52.552;13.204;2023-05-09T04:31:06;18.15;;;12.00;;
25905;SDS011;13713;52.552;13.204;2023-05-09T04:33:33;15.02;;;12.15;;
25905;SDS011;13713;52.552;13.204;2023-05-09T04:36:02;17.08;;;12.75;;
25905;SDS011;13713;52.552;13.204;2023-05-09T04:38:28;17.60;;;13.38;;
25905;SDS011;13713;52.552;13.204;2023-05-09T04:40:54;17.67;;;13.18;;
25905;SDS011;13713;52.552;13.204;2023-05-09T04:43:20;19.25;;;14.25;;
25905;SDS011;13713;52.552;13.204;2023-05-09T04:45:46;20.58;;;14.95;;
25905;SDS011;13713;52.552;13.204;2023-05-09T04:48:14;18.70;;;13.45;;
25905;SDS011;13713;52.552;13.204;2023-05-09T04:50:40;15.40;;;11.95;;
25905;SDS011;13713;52.552;13.204;2023-05-09T04:53:05;20.10;;;14.68;;
25905;SDS011;13713;52.552;13.204;2023-05-09T04:55:33;17.80;;;13.40;;
25905;SDS011;13713;52.552;13.204;2023-05-09T04:57:59;18.40;;;13.98;;
25905;SDS011;13713;52.552;13.204;2023-05-09T05:00:25;17.40;;;13.60;;
25905;SDS011;13713;52.552;13.204;2023-05-09T05:02:51;17.92;;;13.32;;
25905;SDS011;13713;52.552;13.204;2023-05-09T05:05:17;17.23;;;12.68;;
25905;SDS011;13713;52.552;13.204;2023-05-09T05:07:43;16.10;;;13.27;;
25905;SDS011;13713;52.552;13.204;2023-05-09T05:10:11;15.80;;;12.25;;
25905;SDS011;13713;52.552;13.204;2023-05-09T05:12:40;16.13;;;12.95;;
25905;SDS011;13713;52.552;13.204;2023-05-09T05:15:08;17.48;;;12.70;;
25905;SDS011;13713;52.552;13.204;2023-05-09T05:17:35;16.63;;;12.95;;
25905;SDS011;13713;52.552;13.204;2023-05-09T05:20:03;17.20;;;13.10;;
25905;SDS011;13713;52.552;13.204;2023-05-09T05:22:31;16.52;;;13.45;;
25905;SDS011;13713;52.552;13.204;2023-05-09T05:24:57;17.52;;;13.50;;
25905;SDS011;13713;52.552;13.204;2023-05-09T05:27:23;19.70;;;14.23;;
25905;SDS011;13713;52.552;13.204;2023-05-09T05:29:49;22.80;;;15.93;;
25905;SDS011;13713;52.552;13.204;2023-05-09T05:32:15;21.95;;;16.13;;
25905;SDS011;13713;52.552;13.204;2023-05-09T05:34:41;20.40;;;15.60;;
25905;SDS011;13713;52.552;13.204;2023-05-09T05:37:06;18.67;;;14.30;;
25905;SDS011;13713;52.552;13.204;2023-05-09T05:39:32;19.30;;;14.45;;
25905;SDS011;13713;52.552;13.204;2023-05-09T05:41:58;18.70;;;14.50;;
25905;SDS011;13713;52.552;13.204;2023-05-09T05:44:24;29.85;;;20.58;;
25905;SDS011;13713;52.552;13.204;2023-05-09T05:46:49;22.80;;;15.65;;
25905;SDS011;13713;52.552;13.204;2023-05-09T05:49:15;21.77;;;15.80;;
25905;SDS011;13713;52.552;13.204;2023-05-09T05:51:42;23.48;;;15.07;;
25905;SDS011;13713;52.552;13.204;2023-05-09T05:54:08;20.60;;;14.63;;
25905;SDS011;13713;52.552;13.204;2023-05-09T05:56:35;18.60;;;14.63;;
25905;SDS011;13713;52.552;13.204;2023-05-09T05:59:01;19.42;;;15.90;;
25905;SDS011;13713;52.552;13.204;2023-05-09T06:01:26;19.88;;;14.77;;
25905;SDS011;13713;52.552;13.204;2023-05-09T06:03:52;18.73;;;13.57;;
25905;SDS011;13713;52.552;13.204;2023-05-09T06:06:24;24.23;;;18.50;;
25905;SDS011;13713;52.552;13.204;2023-05-09T06:08:52;39.00;;;26.65;;
25905;SDS011;13713;52.552;13.204;2023-05-09T06:11:19;32.70;;;23.27;;
25905;SDS011;13713;52.552;13.204;2023-05-09T06:13:45;41.03;;;26.95;;
25905;SDS011;13713;52.552;13.204;2023-05-09T06:16:11;33.20;;;23.00;;
25905;SDS011;13713;52.552;13.204;2023-05-09T06:18:37;34.15;;;23.75;;
25905;SDS011;13713;52.552;13.204;2023-05-09T06:21:04;42.70;;;28.13;;
25905;SDS011;13713;52.552;13.204;2023-05-09T06:23:33;36.40;;;24.23;;
25905;SDS011;13713;52.552;13.204;2023-05-09T06:26:01;40.15;;;26.85;;
25905;SDS011;13713;52.552;13.204;2023-05-09T06:28:27;42.28;;;25.88;;
25905;SDS011;13713;52.552;13.204;2023-05-09T06:30:53;40.75;;;23.50;;
25905;SDS011;13713;52.552;13.204;2023-05-09T06:33:19;35.67;;;24.45;;
25905;SDS011;13713;52.552;13.204;2023-05-09T06:35:44;49.53;;;25.42;;
25905;SDS011;13713;52.552;13.204;2023-05-09T06:38:10;38.85;;;22.33;;
25905;SDS011;13713;52.552;13.204;2023-05-09T06:40:36;48.10;;;28.85;;
25905;SDS011;13713;52.552;13.204;2023-05-09T06:43:02;47.15;;;25.55;;
25905;SDS011;13713;52.552;13.204;2023-05-09T06:45:28;63.67;;;28.80;;
25905;SDS011;13713;52.552;13.204;2023-05-09T06:47:54;96.45;;;47.17;;
25905;SDS011;13713;52.552;13.204;2023-05-09T06:50:20;71.68;;;33.90;;
25905;SDS011;13713;52.552;13.204;2023-05-09T06:52:46;94.47;;;43.60;;
25905;SDS011;13713;52.552;13.204;2023-05-09T06:55:12;93.45;;;41.47;;
25905;SDS011;13713;52.552;13.204;2023-05-09T06:57:38;134.05;;;59.72;;
25905;SDS011;13713;52.552;13.204;2023-05-09T07:00:07;97.72;;;43.20;;
25905;SDS011;13713;52.552;13.204;2023-05-09T07:02:34;75.40;;;32.85;;
25905;SDS011;13713;52.552;13.204;2023-05-09T07:04:59;54.15;;;26.88;;
25905;SDS011;13713;52.552;13.204;2023-05-09T07:07:25;49.47;;;24.85;;
25905;SDS011;13713;52.552;13.204;2023-05-09T07:09:51;44.15;;;23.13;;
25905;SDS011;13713;52.552;13.204;2023-05-09T07:12:17;51.97;;;25.05;;
25905;SDS011;13713;52.552;13.204;2023-05-09T07:14:42;46.53;;;21.40;;
25905;SDS011;13713;52.552;13.204;2023-05-09T07:17:08;83.70;;;26.23;;
25905;SDS011;13713;52.552;13.204;2023-05-09T07:19:34;36.75;;;17.58;;
25905;SDS011;13713;52.552;13.204;2023-05-09T07:21:59;49.15;;;19.90;;
25905;SDS011;13713;52.552;13.204;2023-05-09T07:24:25;30.10;;;14.98;;
25905;SDS011;13713;52.552;13.204;2023-05-09T07:26:51;30.20;;;14.15;;
25905;SDS011;13713;52.552;13.204;2023-05-09T07:29:17;25.52;;;13.38;;
25905;SDS011;13713;52.552;13.204;2023-05-09T07:31:44;31.73;;;14.77;;
25905;SDS011;13713;52.552;13.204;2023-05-09T07:34:10;30.75;;;15.15;;
25905;SDS011;13713;52.552;13.204;2023-05-09T07:36:35;24.20;;;13.52;;
25905;SDS011;13713;52.552;13.204;2023-05-09T07:39:02;32.53;;;14.40;;
25905;SDS011;13713;52.552;13.204;2023-05-09T07:41:29;35.95;;;15.85;;
25905;SDS011;13713;52.552;13.204;2023-05-09T07:43:55;24.15;;;13.38;;
25905;SDS011;13713;52.552;13.204;2023-05-09T07:46:20;29.05;;;13.20;;
25905;SDS011;13713;52.552;13.204;2023-05-09T07:48:46;26.23;;;13.77;;
25905;SDS011;13713;52.552;13.204;2023-05-09T07:51:12;29.23;;;13.20;;
25905;SDS011;13713;52.552;13.204;2023-05-09T07:53:38;28.05;;;14.73;;
25905;SDS011;13713;52.552;13.204;2023-05-09T07:56:03;25.77;;;14.25;;
25905;SDS011;13713;52.552;13.204;2023-05-09T07:58:30;35.22;;;18.58;;
25905;SDS011;13713;52.552;13.204;2023-05-09T08:00:56;38.72;;;20.70;;
25905;SDS011;13713;52.552;13.204;2023-05-09T08:03:23;55.90;;;25.10;;
25905;SDS011;13713;52.552;13.204;2023-05-09T08:05:51;56.78;;;27.15;;
25905;SDS011;13713;52.552;13.204;2023-05-09T08:08:19;103.80;;;56.07;;
25905;SDS011;13713;52.552;13.204;2023-05-09T08:10:45;80.82;;;47.75;;
25905;SDS011;13713;52.552;13.204;2023-05-09T08:13:11;65.53;;;38.20;;
25905;SDS011;13713;52.552;13.204;2023-05-09T08:15:36;58.00;;;32.38;;
25905;SDS011;13713;52.552;13.204;2023-05-09T08:18:02;60.20;;;34.90;;
25905;SDS011;13713;52.552;13.204;2023-05-09T08:20:28;58.00;;;32.65;;
25905;SDS011;13713;52.552;13.204;2023-05-09T08:22:55;67.35;;;40.60;;
25905;SDS011;13713;52.552;13.204;2023-05-09T08:25:21;57.53;;;35.97;;
25905;SDS011;13713;52.552;13.204;2023-05-09T08:27:47;109.13;;;67.00;;
25905;SDS011;13713;52.552;13.204;2023-05-09T08:30:13;77.50;;;45.35;;
25905;SDS011;13713;52.552;13.204;2023-05-09T08:32:39;76.45;;;43.22;;
25905;SDS011;13713;52.552;13.204;2023-05-09T08:35:05;62.28;;;36.75;;
25905;SDS011;13713;52.552;13.204;2023-05-09T08:37:33;58.55;;;34.17;;
25905;SDS011;13713;52.552;13.204;2023-05-09T08:40:00;57.05;;;33.38;;
25905;SDS011;13713;52.552;13.204;2023-05-09T08:42:25;54.28;;;32.40;;
25905;SDS011;13713;52.552;13.204;2023-05-09T08:44:53;51.95;;;29.48;;
25905;SDS011;13713;52.552;13.204;2023-05-09T08:47:19;46.42;;;28.98;;
25905;SDS011;13713;52.552;13.204;2023-05-09T08:49:46;52.70;;;31.23;;
25905;SDS011;13713;52.552;13.204;2023-05-09T08:52:13;39.28;;;25.35;;
25905;SDS011;13713;52.552;13.204;2023-05-09T08:54:39;44.05;;;23.70;;
25905;SDS011;13713;52.552;13.204;2023-05-09T08:57:05;34.33;;;21.48;;
25905;SDS011;13713;52.552;13.204;2023-05-09T08:59:31;49.40;;;27.58;;
25905;SDS011;13713;52.552;13.204;2023-05-09T09:02:00;63.13;;;37.65;;
25905;SDS011;13713;52.552;13.204;2023-05-09T09:04:29;332.50;;;208.20;;
25905;SDS011;13713;52.552;13.204;2023-05-09T09:06:55;85.43;;;54.85;;
25905;SDS011;13713;52.552;13.204;2023-05-09T09:09:21;70.78;;;45.00;;
25905;SDS011;13713;52.552;13.204;2023-05-09T09:11:47;49.55;;;27.02;;
25905;SDS011;13713;52.552;13.204;2023-05-09T09:14:18;42.70;;;20.70;;
25905;SDS011;13713;52.552;13.204;2023-05-09T09:16:53;46.50;;;23.83;;
25905;SDS011;13713;52.552;13.204;2023-05-09T09:19:21;43.58;;;23.02;;
25905;SDS011;13713;52.552;13.204;2023-05-09T09:21:49;41.92;;;18.80;;
25905;SDS011;13713;52.552;13.204;2023-05-09T09:24:20;38.33;;;17.88;;
25905;SDS011;13713;52.552;13.204;2023-05-09T09:26:48;37.30;;;17.02;;
25905;SDS011;13713;52.552;13.204;2023-05-09T09:29:15;35.33;;;16.75;;
25905;SDS011;13713;52.552;13.204;2023-05-09T09:31:43;42.15;;;17.73;;
25905;SDS011;13713;52.552;13.204;2023-05-09T09:34:10;32.13;;;15.32;;
25905;SDS011;13713;52.552;13.204;2023-05-09T09:36:38;35.50;;;18.42;;
25905;SDS011;13713;52.552;13.204;2023-05-09T09:39:04;32.63;;;15.15;;
25905;SDS011;13713;52.552;13.204;2023-05-09T09:41:31;32.88;;;16.63;;
25905;SDS011;13713;52.552;13.204;2023-05-09T09:44:14;31.25;;;15.40;;
25905;SDS011;13713;52.552;13.204;2023-05-09T09:46:45;39.15;;;17.30;;
25905;SDS011;13713;52.552;13.204;2023-05-09T09:49:14;37.13;;;17.15;;
25905;SDS011;13713;52.552;13.204;2023-05-09T09:51:41;39.53;;;16.70;;
25905;SDS011;13713;52.552;13.204;2023-05-09T09:54:08;36.58;;;15.75;;
25905;SDS011;13713;52.552;13.204;2023-05-09T09:56:45;27.23;;;14.02;;
25905;SDS011;13713;52.552;13.204;2023-05-09T09:59:13;34.83;;;14.82;;
25905;SDS011;13713;52.552;13.204;2023-05-09T10:04:26;40.53;;;18.95;;
25905;SDS011;13713;52.552;13.204;2023-05-09T10:06:53;34.75;;;16.95;;
25905;SDS011;13713;52.552;13.204;2023-05-09T10:09:24;26.73;;;15.13;;
25905;SDS011;13713;52.552;13.204;2023-05-09T10:11:51;36.70;;;14.65;;
25905;SDS011;13713;52.552;13.204;2023-05-09T10:14:17;26.75;;;14.05;;
25905;SDS011;13713;52.552;13.204;2023-05-09T10:16:49;25.88;;;12.93;;
25905;SDS011;13713;52.552;13.204;2023-05-09T10:19:19;26.20;;;12.60;;
25905;SDS011;13713;52.552;13.204;2023-05-09T10:21:53;32.78;;;13.90;;
25905;SDS011;13713;52.552;13.204;2023-05-09T10:27:31;28.88;;;13.32;;
25905;SDS011;13713;52.552;13.204;2023-05-09T10:30:01;31.27;;;13.82;;
25905;SDS011;13713;52.552;13.204;2023-05-09T10:32:35;28.40;;;13.43;;
25905;SDS011;13713;52.552;13.204;2023-05-09T10:35:06;27.55;;;14.02;;
25905;SDS011;13713;52.552;13.204;2023-05-09T10:40:00;31.30;;;13.23;;
25905;SDS011;13713;52.552;13.204;2023-05-09T10:42:29;35.05;;;13.88;;
25905;SDS011;13713;52.552;13.204;2023-05-09T10:44:55;22.17;;;12.15;;
25905;SDS011;13713;52.552;13.204;2023-05-09T10:47:22;28.13;;;12.60;;
25905;SDS011;13713;52.552;13.204;2023-05-09T10:49:51;27.67;;;12.63;;
25905;SDS011;13713;52.552;13.204;2023-05-09T10:52:20;34.00;;;13.70;;
25905;SDS011;13713;52.552;13.204;2023-05-09T10:54:56;46.35;;;18.27;;
25905;SDS011;13713;52.552;13.204;2023-05-09T10:57:25;41.72;;;16.45;;
25905;SDS011;13713;52.552;13.204;2023-05-09T10:59:52;47.10;;;16.27;;
25905;SDS011;13713;52.552;13.204;2023-05-09T11:02:19;33.30;;;14.50;;
25905;SDS011;13713;52.552;13.204;2023-05-09T11:04:45;33.70;;;15.10;;
25905;SDS011;13713;52.552;13.204;2023-05-09T11:07:21;38.55;;;15.82;;
25905;SDS011;13713;52.552;13.204;2023-05-09T11:09:51;27.73;;;13.45;;
25905;SDS011;13713;52.552;13.204;2023-05-09T11:12:53;25.38;;;14.30;;
25905;SDS011;13713;52.552;13.204;2023-05-09T11:15:23;25.27;;;12.65;;
25905;SDS011;13713;52.552;13.204;2023-05-09T11:18:08;28.83;;;12.02;;
25905;SDS011;13713;52.552;13.204;2023-05-09T11:20:35;25.13;;;12.75;;
25905;SDS011;13713;52.552;13.204;2023-05-09T11:23:07;25.40;;;12.18;;
25905;SDS011;13713;52.552;13.204;2023-05-09T11:25:35;28.60;;;13.05;;
25905;SDS011;13713;52.552;13.204;2023-05-09T11:28:03;27.38;;;12.07;;
25905;SDS011;13713;52.552;13.204;2023-05-09T11:33:05;19.02;;;11.02;;
25905;SDS011;13713;52.552;13.204;2023-05-09T11:35:45;19.35;;;10.90;;
25905;SDS011;13713;52.552;13.204;2023-05-09T11:38:11;27.92;;;20.13;;
25905;SDS011;13713;52.552;13.204;2023-05-09T11:40:45;29.88;;;17.35;;
25905;SDS011;13713;52.552;13.204;2023-05-09T11:43:11;26.52;;;16.33;;
25905;SDS011;13713;52.552;13.204;2023-05-09T11:45:37;25.40;;;16.83;;
25905;SDS011;13713;52.552;13.204;2023-05-09T11:48:07;20.38;;;12.02;;
25905;SDS011;13713;52.552;13.204;2023-05-09T11:50:33;17.83;;;10.73;;
25905;SDS011;13713;52.552;13.204;2023-05-09T11:52:59;16.40;;;11.32;;
25905;SDS011;13713;52.552;13.204;2023-05-09T11:55:25;18.52;;;9.93;;
25905;SDS011;13713;52.552;13.204;2023-05-09T11:57:53;17.90;;;10.50;;
25905;SDS011;13713;52.552;13.204;2023-05-09T12:00:20;13.18;;;9.15;;
25905;SDS011;13713;52.552;13.204;2023-05-09T12:02:48;17.25;;;9.85;;
25905;SDS011;13713;52.552;13.204;2023-05-09T12:05:18;24.48;;;11.65;;
25905;SDS011;13713;52.552;13.204;2023-05-09T12:07:45;28.45;;;16.65;;
25905;SDS011;13713;52.552;13.204;2023-05-09T12:10:12;31.25;;;19.70;;
25905;SDS011;13713;52.552;13.204;2023-05-09T12:12:43;33.50;;;22.67;;
25905;SDS011;13713;52.552;13.204;2023-05-09T12:15:10;21.38;;;12.98;;
25905;SDS011;13713;52.552;13.204;2023-05-09T12:17:41;22.70;;;12.38;;
25905;SDS011;13713;52.552;13.204;2023-05-09T12:20:08;22.77;;;11.60;;
25905;SDS011;13713;52.552;13.204;2023-05-09T12:22:34;19.13;;;12.25;;
25905;SDS011;13713;52.552;13.204;2023-05-09T12:25:04;20.25;;;10.27;;
25905;SDS011;13713;52.552;13.204;2023-05-09T12:27:32;21.38;;;10.82;;
25905;SDS011;13713;52.552;13.204;2023-05-09T12:29:59;20.10;;;9.75;;
25905;SDS011;13713;52.552;13.204;2023-05-09T12:32:26;17.38;;;9.40;;
25905;SDS011;13713;52.552;13.204;2023-05-09T12:34:57;21.98;;;11.25;;
25905;SDS011;13713;52.552;13.204;2023-05-09T12:37:24;15.07;;;9.50;;
25905;SDS011;13713;52.552;13.204;2023-05-09T12:40:03;16.52;;;9.50;;
25905;SDS011;13713;52.552;13.204;2023-05-09T12:42:31;15.15;;;10.02;;
25905;SDS011;13713;52.552;13.204;2023-05-09T12:44:57;16.35;;;9.88;;
25905;SDS011;13713;52.552;13.204;2023-05-09T12:47:26;23.50;;;10.93;;
25905;SDS011;13713;52.552;13.204;2023-05-09T12:49:56;41.53;;;24.23;;
25905;SDS011;13713;52.552;13.204;2023-05-09T12:52:40;32.75;;;18.83;;
25905;SDS011;13713;52.552;13.204;2023-05-09T12:55:08;27.00;;;17.92;;
25905;SDS011;13713;52.552;13.204;2023-05-09T12:57:35;25.50;;;17.27;;
25905;SDS011;13713;52.552;13.204;2023-05-09T13:00:03;18.67;;;11.65;;
25905;SDS011;13713;52.552;13.204;2023-05-09T13:02:34;18.13;;;10.93;;
25905;SDS011;13713;52.552;13.204;2023-05-09T13:05:04;15.63;;;9.90;;
25905;SDS011;13713;52.552;13.204;2023-05-09T13:07:37;18.63;;;10.10;;
25905;SDS011;13713;52.552;13.204;2023-05-09T13:10:24;18.67;;;9.95;;
25905;SDS011;13713;52.552;13.204;2023-05-09T13:12:52;14.38;;;9.60;;
25905;SDS011;13713;52.552;13.204;2023-05-09T13:15:19;18.00;;;9.20;;
25905;SDS011;13713;52.552;13.204;2023-05-09T13:17:50;17.17;;;10.10;;
25905;SDS011;13713;52.552;13.204;2023-05-09T13:20:16;17.98;;;11.98;;
25905;SDS011;13713;52.552;13.204;2023-05-09T13:22:42;19.10;;;11.23;;
25905;SDS011;13713;52.552;13.204;2023-05-09T13:25:09;19.08;;;10.82;;
25905;SDS011;13713;52.552;13.204;2023-05-09T13:27:36;16.42;;;9.30;;
25905;SDS011;13713;52.552;13.204;2023-05-09T13:30:02;16.45;;;9.57;;
25905;SDS011;13713;52.552;13.204;2023-05-09T13:32:30;17.45;;;10.05;;
25905;SDS011;13713;52.552;13.204;2023-05-09T13:34:55;18.02;;;9.20;;
25905;SDS011;13713;52.552;13.204;2023-05-09T13:37:21;17.60;;;9.07;;
25905;SDS011;13713;52.552;13.204;2023-05-09T13:39:47;23.25;;;9.63;;
25905;SDS011;13713;52.552;13.204;2023-05-09T13:42:12;18.45;;;10.15;;
25905;SDS011;13713;52.552;13.204;2023-05-09T13:44:38;18.15;;;9.40;;
25905;SDS011;13713;52.552;13.204;2023-05-09T13:47:04;16.50;;;9.45;;
25905;SDS011;13713;52.552;13.204;2023-05-09T13:49:32;15.77;;;9.32;;
25905;SDS011;13713;52.552;13.204;2023-05-09T13:51:58;15.38;;;8.90;;
25905;SDS011;13713;52.552;13.204;2023-05-09T13:54:24;17.08;;;8.43;;
25905;SDS011;13713;52.552;13.204;2023-05-09T13:56:51;15.60;;;9.02;;
25905;SDS011;13713;52.552;13.204;2023-05-09T13:59:16;17.02;;;8.95;;
25905;SDS011;13713;52.552;13.204;2023-05-09T14:01:42;12.23;;;8.68;;
25905;SDS011;13713;52.552;13.204;2023-05-09T14:04:08;12.30;;;8.85;;
25905;SDS011;13713;52.552;13.204;2023-05-09T14:06:33;12.27;;;8.38;;
25905;SDS011;13713;52.552;13.204;2023-05-09T14:08:59;14.50;;;8.57;;
25905;SDS011;13713;52.552;13.204;2023-05-09T14:11:25;13.00;;;7.97;;
25905;SDS011;13713;52.552;13.204;2023-05-09T14:13:51;15.38;;;8.70;;
25905;SDS011;13713;52.552;13.204;2023-05-09T14:16:17;15.57;;;9.00;;
25905;SDS011;13713;52.552;13.204;2023-05-09T14:18:43;12.63;;;8.65;;
25905;SDS011;13713;52.552;13.204;2023-05-09T14:21:09;22.10;;;13.02;;
25905;SDS011;13713;52.552;13.204;2023-05-09T14:23:35;20.27;;;13.38;;
25905;SDS011;13713;52.552;13.204;2023-05-09T14:26:00;17.55;;;12.57;;
25905;SDS011;13713;52.552;13.204;2023-05-09T14:28:26;14.50;;;10.15;;
25905;SDS011;13713;52.552;13.204;2023-05-09T14:30:52;14.13;;;9.02;;
25905;SDS011;13713;52.552;13.204;2023-05-09T14:33:18;17.60;;;9.23;;